Terminal Aerodrome Forecast
Issued by NWS Melbourne, FL

Home | Current Version | Previous Version | Text Only | Print | Product List | Glossary On
Versions: 1 2 3 4 5 6 7 8 9 10 11 12 13 14 15 16 17 18 19
000
FTUS42 KMLB 282149 AAC
TAFMLB
TAF AMD
KMLB 282149Z 2822/2918 13007KT P6SM VCTS SCT040CB BKN250
      TEMPO 2822/2823 24009KT 3SM TSRA BKN030CB BKN060
     FM290100 24005KT P6SM SCT060 BKN120
     FM291400 22007KT P6SM SCT025=

USA.gov is the U.S. government's official web portal to all federal, state and local government web resources and services.